sensor_id;sensor_type;location;lat;lon;timestamp;P1;durP1;ratioP1;P2;durP2;ratioP2
68432;SDS011;55412;51.350;17.056;2023-05-10T00:00:40;7.80;;;2.60;;
68432;SDS011;55412;51.350;17.056;2023-05-10T00:03:07;8.75;;;2.90;;
68432;SDS011;55412;51.350;17.056;2023-05-10T00:05:33;8.50;;;2.88;;
68432;SDS011;55412;51.350;17.056;2023-05-10T00:07:59;6.97;;;2.90;;
68432;SDS011;55412;51.350;17.056;2023-05-10T00:10:25;7.88;;;2.38;;
68432;SDS011;55412;51.350;17.056;2023-05-10T00:12:51;10.57;;;2.85;;
68432;SDS011;55412;51.350;17.056;2023-05-10T00:15:17;7.95;;;2.95;;
68432;SDS011;55412;51.350;17.056;2023-05-10T00:17:43;8.50;;;3.70;;
68432;SDS011;55412;51.350;17.056;2023-05-10T00:20:09;13.13;;;4.03;;
68432;SDS011;55412;51.350;17.056;2023-05-10T00:22:36;28.40;;;8.75;;
68432;SDS011;55412;51.350;17.056;2023-05-10T00:25:02;29.95;;;9.18;;
68432;SDS011;55412;51.350;17.056;2023-05-10T00:27:29;26.98;;;9.82;;
68432;SDS011;55412;51.350;17.056;2023-05-10T00:29:55;34.63;;;10.35;;
68432;SDS011;55412;51.350;17.056;2023-05-10T00:32:21;22.60;;;7.97;;
68432;SDS011;55412;51.350;17.056;2023-05-10T00:34:46;26.02;;;7.55;;
68432;SDS011;55412;51.350;17.056;2023-05-10T00:37:13;46.22;;;13.82;;
68432;SDS011;55412;51.350;17.056;2023-05-10T00:39:39;42.78;;;14.55;;
68432;SDS011;55412;51.350;17.056;2023-05-10T00:42:05;29.43;;;9.73;;
68432;SDS011;55412;51.350;17.056;2023-05-10T00:44:31;24.23;;;7.95;;
68432;SDS011;55412;51.350;17.056;2023-05-10T00:46:57;16.80;;;6.30;;
68432;SDS011;55412;51.350;17.056;2023-05-10T00:49:24;19.58;;;6.97;;
68432;SDS011;55412;51.350;17.056;2023-05-10T00:51:50;20.42;;;7.45;;
68432;SDS011;55412;51.350;17.056;2023-05-10T00:54:17;16.80;;;7.17;;
68432;SDS011;55412;51.350;17.056;2023-05-10T00:56:43;19.48;;;6.65;;
68432;SDS011;55412;51.350;17.056;2023-05-10T00:59:17;12.57;;;4.97;;
68432;SDS011;55412;51.350;17.056;2023-05-10T01:01:44;14.38;;;4.82;;
68432;SDS011;55412;51.350;17.056;2023-05-10T01:04:11;10.05;;;3.58;;
68432;SDS011;55412;51.350;17.056;2023-05-10T01:06:39;8.23;;;3.20;;
68432;SDS011;55412;51.350;17.056;2023-05-10T01:09:06;7.95;;;3.08;;
68432;SDS011;55412;51.350;17.056;2023-05-10T01:11:36;10.38;;;3.42;;
68432;SDS011;55412;51.350;17.056;2023-05-10T01:14:03;7.45;;;2.47;;
68432;SDS011;55412;51.350;17.056;2023-05-10T01:16:32;8.38;;;3.70;;
68432;SDS011;55412;51.350;17.056;2023-05-10T01:19:06;10.30;;;3.33;;
68432;SDS011;55412;51.350;17.056;2023-05-10T01:36:48;9.23;;;3.13;;
68432;SDS011;55412;51.350;17.056;2023-05-10T01:39:32;7.78;;;2.88;;
68432;SDS011;55412;51.350;17.056;2023-05-10T01:42:10;11.63;;;2.97;;
68432;SDS011;55412;51.350;17.056;2023-05-10T01:47:38;5.87;;;2.30;;
68432;SDS011;55412;51.350;17.056;2023-05-10T01:50:15;6.78;;;2.78;;
68432;SDS011;55412;51.350;17.056;2023-05-10T01:52:47;7.35;;;2.65;;
68432;SDS011;55412;51.350;17.056;2023-05-10T01:55:20;7.30;;;2.35;;
68432;SDS011;55412;51.350;17.056;2023-05-10T01:57:51;8.68;;;2.95;;
68432;SDS011;55412;51.350;17.056;2023-05-10T02:00:27;8.27;;;2.37;;
68432;SDS011;55412;51.350;17.056;2023-05-10T02:02:56;8.57;;;2.72;;
68432;SDS011;55412;51.350;17.056;2023-05-10T02:05:23;6.75;;;2.55;;
68432;SDS011;55412;51.350;17.056;2023-05-10T02:07:50;8.82;;;2.40;;
68432;SDS011;55412;51.350;17.056;2023-05-10T02:10:17;7.10;;;2.45;;
68432;SDS011;55412;51.350;17.056;2023-05-10T02:12:46;8.27;;;2.50;;
68432;SDS011;55412;51.350;17.056;2023-05-10T02:15:15;7.43;;;2.33;;
68432;SDS011;55412;51.350;17.056;2023-05-10T02:17:47;6.13;;;2.47;;
68432;SDS011;55412;51.350;17.056;2023-05-10T02:20:14;6.13;;;2.10;;
68432;SDS011;55412;51.350;17.056;2023-05-10T02:22:42;7.35;;;2.47;;
68432;SDS011;55412;51.350;17.056;2023-05-10T02:25:10;7.60;;;2.67;;
68432;SDS011;55412;51.350;17.056;2023-05-10T02:27:38;8.27;;;2.67;;
68432;SDS011;55412;51.350;17.056;2023-05-10T02:30:08;7.70;;;2.63;;
68432;SDS011;55412;51.350;17.056;2023-05-10T02:32:35;7.82;;;3.00;;
68432;SDS011;55412;51.350;17.056;2023-05-10T02:35:03;7.70;;;2.63;;
68432;SDS011;55412;51.350;17.056;2023-05-10T02:37:30;6.87;;;2.40;;
68432;SDS011;55412;51.350;17.056;2023-05-10T02:39:57;6.63;;;2.33;;
68432;SDS011;55412;51.350;17.056;2023-05-10T02:42:25;9.35;;;2.67;;
68432;SDS011;55412;51.350;17.056;2023-05-10T02:44:53;7.65;;;2.90;;
68432;SDS011;55412;51.350;17.056;2023-05-10T02:47:24;8.90;;;2.88;;
68432;SDS011;55412;51.350;17.056;2023-05-10T02:49:50;8.73;;;2.40;;
68432;SDS011;55412;51.350;17.056;2023-05-10T02:52:19;8.77;;;2.20;;
68432;SDS011;55412;51.350;17.056;2023-05-10T02:54:52;7.35;;;1.92;;
68432;SDS011;55412;51.350;17.056;2023-05-10T02:57:22;6.15;;;2.25;;
68432;SDS011;55412;51.350;17.056;2023-05-10T02:59:54;9.45;;;2.40;;
68432;SDS011;55412;51.350;17.056;2023-05-10T03:02:20;6.17;;;2.53;;
68432;SDS011;55412;51.350;17.056;2023-05-10T03:04:46;7.13;;;2.30;;
68432;SDS011;55412;51.350;17.056;2023-05-10T03:07:12;7.38;;;2.58;;
68432;SDS011;55412;51.350;17.056;2023-05-10T03:09:38;6.13;;;2.22;;
68432;SDS011;55412;51.350;17.056;2023-05-10T03:12:14;6.53;;;2.53;;
68432;SDS011;55412;51.350;17.056;2023-05-10T03:18:12;6.25;;;2.60;;
68432;SDS011;55412;51.350;17.056;2023-05-10T03:20:49;9.32;;;2.63;;
68432;SDS011;55412;51.350;17.056;2023-05-10T03:23:43;9.57;;;2.65;;
68432;SDS011;55412;51.350;17.056;2023-05-10T03:26:25;7.57;;;2.17;;
68432;SDS011;55412;51.350;17.056;2023-05-10T03:28:53;6.73;;;2.43;;
68432;SDS011;55412;51.350;17.056;2023-05-10T03:31:20;6.57;;;2.85;;
68432;SDS011;55412;51.350;17.056;2023-05-10T03:33:47;7.68;;;2.38;;
68432;SDS011;55412;51.350;17.056;2023-05-10T03:36:14;11.32;;;2.50;;
68432;SDS011;55412;51.350;17.056;2023-05-10T03:38:41;9.90;;;3.10;;
68432;SDS011;55412;51.350;17.056;2023-05-10T03:41:07;8.37;;;2.37;;
68432;SDS011;55412;51.350;17.056;2023-05-10T03:43:33;8.85;;;2.70;;
68432;SDS011;55412;51.350;17.056;2023-05-10T03:46:01;12.63;;;2.47;;
68432;SDS011;55412;51.350;17.056;2023-05-10T03:48:28;10.02;;;2.70;;
68432;SDS011;55412;51.350;17.056;2023-05-10T03:50:55;6.90;;;2.45;;
68432;SDS011;55412;51.350;17.056;2023-05-10T03:53:21;7.87;;;3.00;;
68432;SDS011;55412;51.350;17.056;2023-05-10T03:55:48;6.70;;;2.42;;
68432;SDS011;55412;51.350;17.056;2023-05-10T03:58:14;6.93;;;2.40;;
68432;SDS011;55412;51.350;17.056;2023-05-10T04:00:40;7.45;;;2.50;;
68432;SDS011;55412;51.350;17.056;2023-05-10T04:03:10;11.13;;;2.60;;
68432;SDS011;55412;51.350;17.056;2023-05-10T04:05:39;6.20;;;1.77;;
68432;SDS011;55412;51.350;17.056;2023-05-10T04:08:05;7.93;;;2.83;;
68432;SDS011;55412;51.350;17.056;2023-05-10T04:10:32;7.40;;;2.30;;
68432;SDS011;55412;51.350;17.056;2023-05-10T04:12:58;8.85;;;2.38;;
68432;SDS011;55412;51.350;17.056;2023-05-10T04:15:24;5.72;;;2.35;;
68432;SDS011;55412;51.350;17.056;2023-05-10T04:17:50;5.17;;;1.53;;
68432;SDS011;55412;51.350;17.056;2023-05-10T04:20:16;7.93;;;2.45;;
68432;SDS011;55412;51.350;17.056;2023-05-10T04:22:42;6.07;;;2.45;;
68432;SDS011;55412;51.350;17.056;2023-05-10T04:25:08;8.70;;;2.58;;
68432;SDS011;55412;51.350;17.056;2023-05-10T04:27:34;9.65;;;2.42;;
68432;SDS011;55412;51.350;17.056;2023-05-10T04:30:00;6.60;;;2.43;;
68432;SDS011;55412;51.350;17.056;2023-05-10T04:32:27;6.10;;;2.40;;
68432;SDS011;55412;51.350;17.056;2023-05-10T04:34:53;6.78;;;2.17;;
68432;SDS011;55412;51.350;17.056;2023-05-10T04:37:19;7.03;;;2.60;;
68432;SDS011;55412;51.350;17.056;2023-05-10T04:39:46;5.97;;;2.20;;
68432;SDS011;55412;51.350;17.056;2023-05-10T04:42:12;9.80;;;2.70;;
68432;SDS011;55412;51.350;17.056;2023-05-10T04:44:40;8.45;;;2.28;;
68432;SDS011;55412;51.350;17.056;2023-05-10T04:47:06;6.40;;;2.22;;
68432;SDS011;55412;51.350;17.056;2023-05-10T04:49:32;7.07;;;2.03;;
68432;SDS011;55412;51.350;17.056;2023-05-10T04:51:58;7.45;;;2.42;;
68432;SDS011;55412;51.350;17.056;2023-05-10T04:54:24;9.37;;;3.70;;
68432;SDS011;55412;51.350;17.056;2023-05-10T04:56:50;5.78;;;2.67;;
68432;SDS011;55412;51.350;17.056;2023-05-10T04:59:16;6.30;;;2.22;;
68432;SDS011;55412;51.350;17.056;2023-05-10T05:01:42;7.63;;;2.15;;
68432;SDS011;55412;51.350;17.056;2023-05-10T05:04:08;7.68;;;2.70;;
68432;SDS011;55412;51.350;17.056;2023-05-10T05:06:34;7.73;;;3.17;;
68432;SDS011;55412;51.350;17.056;2023-05-10T05:09:00;6.03;;;2.38;;
68432;SDS011;55412;51.350;17.056;2023-05-10T05:11:26;6.90;;;2.58;;
68432;SDS011;55412;51.350;17.056;2023-05-10T05:13:52;9.27;;;2.97;;
68432;SDS011;55412;51.350;17.056;2023-05-10T05:16:18;6.57;;;2.88;;
68432;SDS011;55412;51.350;17.056;2023-05-10T05:18:44;7.20;;;3.03;;
68432;SDS011;55412;51.350;17.056;2023-05-10T05:21:17;8.07;;;3.00;;
68432;SDS011;55412;51.350;17.056;2023-05-10T05:23:44;7.07;;;2.60;;
68432;SDS011;55412;51.350;17.056;2023-05-10T05:26:11;8.18;;;2.47;;
68432;SDS011;55412;51.350;17.056;2023-05-10T05:28:37;5.43;;;2.23;;
68432;SDS011;55412;51.350;17.056;2023-05-10T05:31:04;7.78;;;2.63;;
68432;SDS011;55412;51.350;17.056;2023-05-10T05:33:30;6.10;;;2.90;;
68432;SDS011;55412;51.350;17.056;2023-05-10T05:35:56;7.60;;;2.95;;
68432;SDS011;55412;51.350;17.056;2023-05-10T05:38:27;6.80;;;3.08;;
68432;SDS011;55412;51.350;17.056;2023-05-10T05:40:53;7.07;;;2.70;;
68432;SDS011;55412;51.350;17.056;2023-05-10T05:43:19;6.32;;;2.28;;
68432;SDS011;55412;51.350;17.056;2023-05-10T05:45:45;5.70;;;2.60;;
68432;SDS011;55412;51.350;17.056;2023-05-10T05:48:11;5.70;;;2.33;;
68432;SDS011;55412;51.350;17.056;2023-05-10T05:50:37;7.25;;;3.10;;
68432;SDS011;55412;51.350;17.056;2023-05-10T05:53:03;6.67;;;2.83;;
68432;SDS011;55412;51.350;17.056;2023-05-10T05:55:29;5.13;;;2.40;;
68432;SDS011;55412;51.350;17.056;2023-05-10T05:57:56;6.20;;;2.20;;
68432;SDS011;55412;51.350;17.056;2023-05-10T06:00:23;4.60;;;1.85;;
68432;SDS011;55412;51.350;17.056;2023-05-10T06:02:49;5.93;;;2.58;;
68432;SDS011;55412;51.350;17.056;2023-05-10T06:05:15;5.90;;;2.70;;
68432;SDS011;55412;51.350;17.056;2023-05-10T06:07:41;5.53;;;2.38;;
68432;SDS011;55412;51.350;17.056;2023-05-10T06:10:08;7.95;;;3.15;;
68432;SDS011;55412;51.350;17.056;2023-05-10T06:12:34;5.53;;;2.17;;
68432;SDS011;55412;51.350;17.056;2023-05-10T06:15:01;6.07;;;2.70;;
68432;SDS011;55412;51.350;17.056;2023-05-10T06:17:28;6.13;;;2.20;;
68432;SDS011;55412;51.350;17.056;2023-05-10T06:19:54;6.53;;;2.83;;
68432;SDS011;55412;51.350;17.056;2023-05-10T06:22:21;7.05;;;2.78;;
68432;SDS011;55412;51.350;17.056;2023-05-10T06:24:48;5.82;;;2.45;;
68432;SDS011;55412;51.350;17.056;2023-05-10T06:27:14;5.55;;;2.60;;
68432;SDS011;55412;51.350;17.056;2023-05-10T06:29:40;7.47;;;2.60;;
68432;SDS011;55412;51.350;17.056;2023-05-10T06:32:06;6.82;;;2.95;;
68432;SDS011;55412;51.350;17.056;2023-05-10T06:34:32;5.95;;;2.85;;
68432;SDS011;55412;51.350;17.056;2023-05-10T06:36:59;6.07;;;2.28;;
68432;SDS011;55412;51.350;17.056;2023-05-10T06:39:25;6.43;;;2.70;;
68432;SDS011;55412;51.350;17.056;2023-05-10T06:41:51;6.80;;;1.97;;
68432;SDS011;55412;51.350;17.056;2023-05-10T06:44:17;4.53;;;1.98;;
68432;SDS011;55412;51.350;17.056;2023-05-10T06:46:43;4.88;;;2.55;;
68432;SDS011;55412;51.350;17.056;2023-05-10T06:49:09;5.57;;;2.25;;
68432;SDS011;55412;51.350;17.056;2023-05-10T06:51:35;6.53;;;2.97;;
68432;SDS011;55412;51.350;17.056;2023-05-10T06:54:01;5.63;;;2.53;;
68432;SDS011;55412;51.350;17.056;2023-05-10T06:56:28;5.93;;;2.90;;
68432;SDS011;55412;51.350;17.056;2023-05-10T06:58:54;5.97;;;2.72;;
68432;SDS011;55412;51.350;17.056;2023-05-10T07:01:20;10.30;;;2.90;;
68432;SDS011;55412;51.350;17.056;2023-05-10T07:03:46;7.17;;;2.43;;
68432;SDS011;55412;51.350;17.056;2023-05-10T07:06:12;7.77;;;2.33;;
68432;SDS011;55412;51.350;17.056;2023-05-10T07:08:38;5.25;;;2.85;;
68432;SDS011;55412;51.350;17.056;2023-05-10T07:11:05;6.40;;;2.70;;
68432;SDS011;55412;51.350;17.056;2023-05-10T07:13:33;8.85;;;2.38;;
68432;SDS011;55412;51.350;17.056;2023-05-10T07:16:00;7.65;;;2.47;;
68432;SDS011;55412;51.350;17.056;2023-05-10T07:18:27;6.03;;;2.33;;
68432;SDS011;55412;51.350;17.056;2023-05-10T07:20:53;6.47;;;2.28;;
68432;SDS011;55412;51.350;17.056;2023-05-10T07:23:20;4.07;;;1.92;;
68432;SDS011;55412;51.350;17.056;2023-05-10T07:25:46;4.72;;;2.85;;
68432;SDS011;55412;51.350;17.056;2023-05-10T07:28:14;5.07;;;1.65;;
68432;SDS011;55412;51.350;17.056;2023-05-10T07:30:41;5.07;;;2.00;;
68432;SDS011;55412;51.350;17.056;2023-05-10T07:33:08;6.38;;;2.17;;
68432;SDS011;55412;51.350;17.056;2023-05-10T07:35:36;5.28;;;2.20;;
68432;SDS011;55412;51.350;17.056;2023-05-10T07:38:02;5.47;;;2.08;;
68432;SDS011;55412;51.350;17.056;2023-05-10T07:40:28;4.78;;;2.22;;
68432;SDS011;55412;51.350;17.056;2023-05-10T07:42:55;4.43;;;2.00;;
68432;SDS011;55412;51.350;17.056;2023-05-10T07:45:21;4.80;;;2.28;;
68432;SDS011;55412;51.350;17.056;2023-05-10T07:47:48;3.40;;;1.25;;
68432;SDS011;55412;51.350;17.056;2023-05-10T07:50:15;5.72;;;1.65;;
68432;SDS011;55412;51.350;17.056;2023-05-10T07:52:41;7.55;;;2.05;;
68432;SDS011;55412;51.350;17.056;2023-05-10T07:55:07;5.87;;;1.50;;
68432;SDS011;55412;51.350;17.056;2023-05-10T07:57:34;6.70;;;2.53;;
68432;SDS011;55412;51.350;17.056;2023-05-10T08:00:00;5.03;;;1.63;;
68432;SDS011;55412;51.350;17.056;2023-05-10T08:02:27;6.50;;;1.75;;
68432;SDS011;55412;51.350;17.056;2023-05-10T08:04:54;4.45;;;1.73;;
68432;SDS011;55412;51.350;17.056;2023-05-10T08:07:21;5.30;;;1.57;;
68432;SDS011;55412;51.350;17.056;2023-05-10T08:09:47;4.30;;;1.60;;
68432;SDS011;55412;51.350;17.056;2023-05-10T08:12:13;6.25;;;1.67;;
68432;SDS011;55412;51.350;17.056;2023-05-10T08:14:39;4.43;;;1.67;;
68432;SDS011;55412;51.350;17.056;2023-05-10T08:17:05;4.97;;;1.38;;
68432;SDS011;55412;51.350;17.056;2023-05-10T08:19:31;6.23;;;2.17;;
68432;SDS011;55412;51.350;17.056;2023-05-10T08:21:57;4.00;;;1.80;;
68432;SDS011;55412;51.350;17.056;2023-05-10T08:24:23;4.40;;;2.03;;
68432;SDS011;55412;51.350;17.056;2023-05-10T08:26:49;5.05;;;1.67;;
68432;SDS011;55412;51.350;17.056;2023-05-10T08:29:15;5.93;;;1.80;;
68432;SDS011;55412;51.350;17.056;2023-05-10T08:31:42;3.92;;;1.45;;
68432;SDS011;55412;51.350;17.056;2023-05-10T08:34:08;6.05;;;2.10;;
68432;SDS011;55412;51.350;17.056;2023-05-10T08:36:34;3.95;;;1.38;;
68432;SDS011;55412;51.350;17.056;2023-05-10T08:39:00;9.05;;;2.33;;
68432;SDS011;55412;51.350;17.056;2023-05-10T08:41:25;4.73;;;1.60;;
68432;SDS011;55412;51.350;17.056;2023-05-10T08:43:52;4.70;;;2.20;;
68432;SDS011;55412;51.350;17.056;2023-05-10T08:46:20;5.80;;;1.60;;
68432;SDS011;55412;51.350;17.056;2023-05-10T08:48:48;4.47;;;1.48;;
68432;SDS011;55412;51.350;17.056;2023-05-10T08:51:20;9.32;;;2.00;;
68432;SDS011;55412;51.350;17.056;2023-05-10T08:53:52;4.30;;;1.77;;
68432;SDS011;55412;51.350;17.056;2023-05-10T08:56:19;5.55;;;1.80;;
68432;SDS011;55412;51.350;17.056;2023-05-10T08:58:46;4.72;;;2.00;;
68432;SDS011;55412;51.350;17.056;2023-05-10T09:01:12;5.82;;;2.20;;
68432;SDS011;55412;51.350;17.056;2023-05-10T09:03:41;5.95;;;1.50;;
68432;SDS011;55412;51.350;17.056;2023-05-10T09:06:07;5.80;;;1.57;;
68432;SDS011;55412;51.350;17.056;2023-05-10T09:08:34;7.25;;;2.13;;
68432;SDS011;55412;51.350;17.056;2023-05-10T09:11:01;5.68;;;1.90;;
68432;SDS011;55412;51.350;17.056;2023-05-10T09:13:28;7.32;;;2.08;;
68432;SDS011;55412;51.350;17.056;2023-05-10T09:15:54;7.53;;;1.92;;
68432;SDS011;55412;51.350;17.056;2023-05-10T09:18:21;5.97;;;1.63;;
68432;SDS011;55412;51.350;17.056;2023-05-10T09:20:47;4.40;;;1.98;;
68432;SDS011;55412;51.350;17.056;2023-05-10T09:23:14;4.55;;;1.92;;
68432;SDS011;55412;51.350;17.056;2023-05-10T09:25:43;4.68;;;1.73;;
68432;SDS011;55412;51.350;17.056;2023-05-10T09:28:10;5.10;;;1.45;;
68432;SDS011;55412;51.350;17.056;2023-05-10T09:30:36;5.53;;;1.53;;
68432;SDS011;55412;51.350;17.056;2023-05-10T09:33:03;8.23;;;2.17;;
68432;SDS011;55412;51.350;17.056;2023-05-10T09:35:30;5.30;;;1.63;;
68432;SDS011;55412;51.350;17.056;2023-05-10T09:38:03;5.43;;;1.70;;
68432;SDS011;55412;51.350;17.056;2023-05-10T09:40:30;4.70;;;1.80;;
68432;SDS011;55412;51.350;17.056;2023-05-10T09:43:00;4.93;;;1.50;;
68432;SDS011;55412;51.350;17.056;2023-05-10T09:45:30;4.53;;;1.52;;
68432;SDS011;55412;51.350;17.056;2023-05-10T09:47:58;5.03;;;1.77;;
68432;SDS011;55412;51.350;17.056;2023-05-10T09:50:26;4.97;;;1.95;;
68432;SDS011;55412;51.350;17.056;2023-05-10T09:53:00;5.13;;;2.20;;
68432;SDS011;55412;51.350;17.056;2023-05-10T09:55:44;5.80;;;1.53;;
68432;SDS011;55412;51.350;17.056;2023-05-10T09:58:14;4.47;;;1.40;;
68432;SDS011;55412;51.350;17.056;2023-05-10T10:00:41;4.50;;;2.00;;
68432;SDS011;55412;51.350;17.056;2023-05-10T10:03:16;4.32;;;1.40;;
68432;SDS011;55412;51.350;17.056;2023-05-10T10:05:44;4.90;;;1.33;;
68432;SDS011;55412;51.350;17.056;2023-05-10T10:08:13;3.27;;;1.00;;
68432;SDS011;55412;51.350;17.056;2023-05-10T10:10:40;4.45;;;1.63;;
68432;SDS011;55412;51.350;17.056;2023-05-10T10:13:09;5.45;;;1.17;;
68432;SDS011;55412;51.350;17.056;2023-05-10T10:15:35;6.50;;;1.23;;
68432;SDS011;55412;51.350;17.056;2023-05-10T10:18:01;4.80;;;1.52;;
68432;SDS011;55412;51.350;17.056;2023-05-10T10:20:31;5.73;;;1.60;;
68432;SDS011;55412;51.350;17.056;2023-05-10T10:22:57;4.18;;;1.45;;
68432;SDS011;55412;51.350;17.056;2023-05-10T10:25:23;6.43;;;1.52;;
68432;SDS011;55412;51.350;17.056;2023-05-10T10:30:22;4.23;;;1.40;;
68432;SDS011;55412;51.350;17.056;2023-05-10T10:33:10;3.72;;;1.63;;
68432;SDS011;55412;51.350;17.056;2023-05-10T10:36:06;4.18;;;1.52;;
68432;SDS011;55412;51.350;17.056;2023-05-10T10:38:35;3.80;;;1.10;;
68432;SDS011;55412;51.350;17.056;2023-05-10T10:41:12;5.65;;;1.88;;
68432;SDS011;55412;51.350;17.056;2023-05-10T10:47:00;4.25;;;1.40;;
68432;SDS011;55412;51.350;17.056;2023-05-10T10:50:07;3.47;;;1.30;;
68432;SDS011;55412;51.350;17.056;2023-05-10T10:52:35;4.55;;;1.60;;
68432;SDS011;55412;51.350;17.056;2023-05-10T10:55:16;4.68;;;1.98;;
68432;SDS011;55412;51.350;17.056;2023-05-10T10:57:51;3.70;;;1.30;;
68432;SDS011;55412;51.350;17.056;2023-05-10T11:10:39;4.17;;;1.37;;
68432;SDS011;55412;51.350;17.056;2023-05-10T11:13:26;5.75;;;1.85;;
68432;SDS011;55412;51.350;17.056;2023-05-10T11:15:58;3.85;;;1.70;;
68432;SDS011;55412;51.350;17.056;2023-05-10T11:18:36;3.15;;;1.38;;
68432;SDS011;55412;51.350;17.056;2023-05-10T11:21:03;8.45;;;1.77;;
68432;SDS011;55412;51.350;17.056;2023-05-10T11:23:32;3.50;;;1.27;;
68432;SDS011;55412;51.350;17.056;2023-05-10T11:26:23;4.68;;;1.65;;
68432;SDS011;55412;51.350;17.056;2023-05-10T11:29:10;4.15;;;1.55;;
68432;SDS011;55412;51.350;17.056;2023-05-10T11:31:44;3.35;;;1.30;;
68432;SDS011;55412;51.350;17.056;2023-05-10T11:34:22;4.85;;;1.77;;
68432;SDS011;55412;51.350;17.056;2023-05-10T11:36:55;4.33;;;1.70;;
68432;SDS011;55412;51.350;17.056;2023-05-10T11:39:26;3.70;;;1.60;;
68432;SDS011;55412;51.350;17.056;2023-05-10T11:41:54;3.80;;;1.35;;
68432;SDS011;55412;51.350;17.056;2023-05-10T11:44:20;3.85;;;1.48;;
68432;SDS011;55412;51.350;17.056;2023-05-10T11:46:46;3.60;;;1.60;;
68432;SDS011;55412;51.350;17.056;2023-05-10T11:49:14;4.63;;;1.60;;
68432;SDS011;55412;51.350;17.056;2023-05-10T11:51:40;4.65;;;1.10;;
68432;SDS011;55412;51.350;17.056;2023-05-10T11:54:09;3.97;;;1.70;;
68432;SDS011;55412;51.350;17.056;2023-05-10T11:56:40;4.65;;;1.40;;
68432;SDS011;55412;51.350;17.056;2023-05-10T11:59:06;3.65;;;1.20;;
68432;SDS011;55412;51.350;17.056;2023-05-10T12:01:33;5.23;;;2.07;;
68432;SDS011;55412;51.350;17.056;2023-05-10T12:03:59;3.63;;;1.38;;
68432;SDS011;55412;51.350;17.056;2023-05-10T12:06:27;5.00;;;1.60;;
68432;SDS011;55412;51.350;17.056;2023-05-10T12:08:56;4.13;;;1.58;;
68432;SDS011;55412;51.350;17.056;2023-05-10T12:11:26;4.03;;;1.70;;
68432;SDS011;55412;51.350;17.056;2023-05-10T12:13:54;8.70;;;1.57;;
68432;SDS011;55412;51.350;17.056;2023-05-10T12:16:25;3.80;;;1.27;;
68432;SDS011;55412;51.350;17.056;2023-05-10T12:18:56;5.55;;;2.05;;
68432;SDS011;55412;51.350;17.056;2023-05-10T12:21:24;3.53;;;1.60;;
68432;SDS011;55412;51.350;17.056;2023-05-10T12:23:52;4.18;;;1.67;;
68432;SDS011;55412;51.350;17.056;2023-05-10T12:26:22;3.80;;;1.27;;
68432;SDS011;55412;51.350;17.056;2023-05-10T12:28:51;6.50;;;1.55;;
68432;SDS011;55412;51.350;17.056;2023-05-10T12:31:20;5.32;;;1.95;;
68432;SDS011;55412;51.350;17.056;2023-05-10T12:33:46;4.22;;;1.70;;
68432;SDS011;55412;51.350;17.056;2023-05-10T12:36:14;5.22;;;1.90;;
68432;SDS011;55412;51.350;17.056;2023-05-10T12:38:42;4.60;;;1.50;;
68432;SDS011;55412;51.350;17.056;2023-05-10T12:41:13;3.88;;;1.58;;
68432;SDS011;55412;51.350;17.056;2023-05-10T12:43:41;3.60;;;1.52;;
68432;SDS011;55412;51.350;17.056;2023-05-10T12:46:08;3.25;;;1.00;;
68432;SDS011;55412;51.350;17.056;2023-05-10T12:48:36;3.05;;;1.20;;
68432;SDS011;55412;51.350;17.056;2023-05-10T12:51:04;4.93;;;1.10;;
68432;SDS011;55412;51.350;17.056;2023-05-10T12:53:34;3.75;;;0.82;;
68432;SDS011;55412;51.350;17.056;2023-05-10T12:56:01;3.53;;;1.33;;
68432;SDS011;55412;51.350;17.056;2023-05-10T12:58:27;4.25;;;1.58;;
68432;SDS011;55412;51.350;17.056;2023-05-10T13:00:53;4.25;;;1.40;;
68432;SDS011;55412;51.350;17.056;2023-05-10T13:03:21;2.60;;;0.70;;
68432;SDS011;55412;51.350;17.056;2023-05-10T13:05:48;3.80;;;1.13;;
68432;SDS011;55412;51.350;17.056;2023-05-10T13:08:14;4.20;;;1.13;;
68432;SDS011;55412;51.350;17.056;2023-05-10T13:10:40;4.07;;;1.25;;
68432;SDS011;55412;51.350;17.056;2023-05-10T13:13:06;3.40;;;1.67;;
68432;SDS011;55412;51.350;17.056;2023-05-10T13:15:33;3.33;;;1.30;;
68432;SDS011;55412;51.350;17.056;2023-05-10T13:18:00;4.90;;;0.82;;
68432;SDS011;55412;51.350;17.056;2023-05-10T13:20:26;5.30;;;1.58;;
68432;SDS011;55412;51.350;17.056;2023-05-10T13:22:52;3.30;;;1.02;;
68432;SDS011;55412;51.350;17.056;2023-05-10T13:25:18;5.07;;;1.30;;
68432;SDS011;55412;51.350;17.056;2023-05-10T13:27:45;3.57;;;0.83;;
68432;SDS011;55412;51.350;17.056;2023-05-10T13:30:11;3.22;;;1.17;;
68432;SDS011;55412;51.350;17.056;2023-05-10T13:32:37;3.85;;;1.55;;
68432;SDS011;55412;51.350;17.056;2023-05-10T13:35:03;5.80;;;1.48;;
68432;SDS011;55412;51.350;17.056;2023-05-10T13:37:30;5.90;;;1.30;;
68432;SDS011;55412;51.350;17.056;2023-05-10T13:40:00;3.17;;;1.07;;
68432;SDS011;55412;51.350;17.056;2023-05-10T13:42:26;3.97;;;0.85;;
68432;SDS011;55412;51.350;17.056;2023-05-10T13:44:53;6.22;;;1.15;;
68432;SDS011;55412;51.350;17.056;2023-05-10T13:47:19;3.70;;;1.10;;
68432;SDS011;55412;51.350;17.056;2023-05-10T13:49:46;5.68;;;1.40;;
68432;SDS011;55412;51.350;17.056;2023-05-10T13:52:12;3.17;;;1.23;;
68432;SDS011;55412;51.350;17.056;2023-05-10T13:54:39;5.10;;;1.38;;
68432;SDS011;55412;51.350;17.056;2023-05-10T13:57:05;2.80;;;0.98;;
68432;SDS011;55412;51.350;17.056;2023-05-10T13:59:31;4.07;;;1.08;;
68432;SDS011;55412;51.350;17.056;2023-05-10T14:01:58;5.07;;;1.45;;
68432;SDS011;55412;51.350;17.056;2023-05-10T14:04:25;7.33;;;1.00;;
68432;SDS011;55412;51.350;17.056;2023-05-10T14:06:51;3.30;;;0.93;;
68432;SDS011;55412;51.350;17.056;2023-05-10T14:09:18;3.33;;;0.75;;
68432;SDS011;55412;51.350;17.056;2023-05-10T14:11:44;5.80;;;1.17;;
68432;SDS011;55412;51.350;17.056;2023-05-10T14:14:10;5.32;;;1.38;;
68432;SDS011;55412;51.350;17.056;2023-05-10T14:16:37;4.40;;;0.90;;
68432;SDS011;55412;51.350;17.056;2023-05-10T14:19:06;3.38;;;1.38;;
68432;SDS011;55412;51.350;17.056;2023-05-10T14:21:33;3.38;;;0.93;;
68432;SDS011;55412;51.350;17.056;2023-05-10T14:23:59;3.92;;;1.30;;
68432;SDS011;55412;51.350;17.056;2023-05-10T14:26:25;4.28;;;0.80;;
68432;SDS011;55412;51.350;17.056;2023-05-10T14:28:52;4.33;;;1.20;;
68432;SDS011;55412;51.350;17.056;2023-05-10T14:31:18;4.70;;;0.90;;
68432;SDS011;55412;51.350;17.056;2023-05-10T14:33:46;5.72;;;1.00;;
68432;SDS011;55412;51.350;17.056;2023-05-10T14:36:12;3.78;;;1.13;;
68432;SDS011;55412;51.350;17.056;2023-05-10T14:38:39;3.40;;;1.60;;
68432;SDS011;55412;51.350;17.056;2023-05-10T14:41:05;5.10;;;1.10;;
68432;SDS011;55412;51.350;17.056;2023-05-10T14:43:32;6.63;;;1.20;;
68432;SDS011;55412;51.350;17.056;2023-05-10T14:45:58;4.22;;;1.38;;
68432;SDS011;55412;51.350;17.056;2023-05-10T14:48:24;3.40;;;1.05;;
68432;SDS011;55412;51.350;17.056;2023-05-10T14:50:50;3.78;;;1.25;;
68432;SDS011;55412;51.350;17.056;2023-05-10T14:53:17;2.97;;;1.40;;
68432;SDS011;55412;51.350;17.056;2023-05-10T14:55:43;3.33;;;1.42;;
68432;SDS011;55412;51.350;17.056;2023-05-10T14:58:09;3.22;;;1.17;;
68432;SDS011;55412;51.350;17.056;2023-05-10T15:00:35;4.40;;;1.20;;
68432;SDS011;55412;51.350;17.056;2023-05-10T15:03:02;4.50;;;1.60;;
68432;SDS011;55412;51.350;17.056;2023-05-10T15:05:28;3.80;;;1.40;;
68432;SDS011;55412;51.350;17.056;2023-05-10T15:07:54;3.85;;;1.30;;
68432;SDS011;55412;51.350;17.056;2023-05-10T15:10:20;4.30;;;1.13;;
68432;SDS011;55412;51.350;17.056;2023-05-10T15:12:47;3.70;;;1.52;;
68432;SDS011;55412;51.350;17.056;2023-05-10T15:15:13;4.20;;;1.50;;